Estación Meteorológica Peña el Pijo (Robertgarden) [ 07/23/19 12:50:24 CEST ]

Fecha Hora Presion(HPa) Temp (°C) Humedad % Rocio (°C) Viento ( m/s) Direccion Lluvia 1Hora(mm) Lluvia 24H(mm) LLuvia Total(mm)
2019-Mar-16 01:01:51 1015.700 5.8 53 -3.1         184.40
2019-Mar-16 02:01:42 1015.500 5.6 55 -2.8         184.40
2019-Mar-16 03:03:41 1014.800 4.6 58 -3.0         184.40
2019-Mar-16 04:01:39 1014.200 3.9 61 -3.0         184.40
2019-Mar-16 05:01:44 1014.100 3.6 63 -2.8         184.40
2019-Mar-16 06:01:41 1014.200 3.6 65 -2.4         184.40
2019-Mar-16 07:01:53 1014.200 3.3 66 -2.5         184.40
2019-Mar-16 08:01:47 1014.200 2.7 68 -2.6         184.40
2019-Mar-16 09:02:02 1014.000 8.6 59 1.0         184.40
2019-Mar-16 10:01:59 1013.800 16.2 37 1.4         184.40
2019-Mar-16 11:01:49 1013.100 22.1 21 -1.3         184.40
2019-Mar-16 12:01:46 1012.800 22.9 16 -4.8         184.40
2019-Mar-16 13:01:40 1012.300 22.7 17 -4.1         184.40
2019-Mar-16 14:01:38 1011.200 24.8 16 -3.3         184.40
2019-Mar-16 15:01:56 1010.400 25.1 15 -4.0         184.40
2019-Mar-16 16:01:53 1009.800 24.7 15 -4.3         184.40
2019-Mar-16 17:01:54 1009.200 23.6 15 -5.2         184.40
2019-Mar-16 18:01:58 1009.000 21.8 16 -5.8         184.40
2019-Mar-16 19:01:52 1009.300 19.1 23 -2.7         184.40
2019-Mar-16 20:01:39 1009.700 14.6 28 -3.8         184.40
2019-Mar-16 21:01:39 1010.600 10.4 35 -4.5         184.40
2019-Mar-16 22:01:44 1010.700 7.8 42 -4.4         184.40
2019-Mar-16 23:01:37 1010.600 6.1 46 -4.7         184.40

Temperatura Máxima:25°    Temperatura Mínima:
Presión Máxima:1015.700 Hpa    Presión Mínima:1009.000 Hpa


Volver